Ladd AAF Airfield
PAFB : now visible

Airfield :











YOU CAN JOIN US ON...

 
LOGIN :

Register | Disclaimer

   EN    FR    IT 

 









Legend :    VFR   Marginal VFR   IFR   Intensive IFR   Very Intensive IFR
Visi :
Ceiling :
>= 8 km
>= 3000ft
5 to 8 km
1000 to 3000 ft
1500m to 5 km
500 to 1000 ft
800 to 1500m
200 to 500 ft
< 800m
< 200 ft
Symbols :   Thunderstorms  Fog  Heavy snow  Heavy precipitations  Wind > 20 kt






- Airport Elevation : 454 ft
- IATA code : FBK


PAFB - Ladd AAF

CURRENT METAR :
  • 291258Z AUTO 00000KT 10SM OVC140 10/08 A3009 RMK AO2 SLP192 T01030080

EXPIRED METARs :
  • 291158Z AUTO 00000KT 10SM SCT120 BKN140 10/08 A3011 RMK AO2 SLP199 T01020081 10165 20094 56007
  • 291058Z AUTO 15005KT 10SM FEW130 11/08 A3012 RMK AO2 SLP202 T01120080

TAF TAF PAFB
Valid from the 29 at 07:00 until the 30 at 13:00 UTC


290700Z 2907/3013 04009KT 9999 FEW050 BKN080 620804 QNH3003INS
BECMG 2919/2920 07010G15KT 9999 FEW085 SCT100 QNH3001INS
BECMG 3005/3006 05009KT 9999 FEW080 QNH2996INS TX22/3000Z TN06/2911Z
PAZA FIR / North America



MET'MAP, your aeronautical weather chart ! - Copyright ORBIFLY December 2007 - Disclaimer

ORBIFLY MET'MAP TEAM :

Programming & Development : Alexandra Zaïnal
Concept & original design : Baudouin d'Aumeries
Assistance for programming : Marc-Olivier Méhu
Technical & hardware support : Manuel Goepfert

Contact : metmap@orbifly.com




SOURCES & CREDITS :

   NOAA       Earth
Advisory